Ginys del Meteocat
Campanya meteocatpedra

Dades de l'estació automàtica el Canós

?
?
Resum diari 22:00 TU
Dades diàries de l'estació meteorològica
Temperatura mitjana 11.5 °C
Temperatura màxima 15.8 °C 14:41 TU
Temperatura mínima 8.7 °C 5:01 TU
Humitat relativa mitjana 85%
Precipitació acumulada 0.0 mm
Ratxa màxima del vent (2 m) 13.3 km/h - 250º 5:26 TU
Irradiació solar global 8.3 MJ/m2

El tram horari està expressat en Temps Universal (TU). Cal sumar una hora en horari d'hivern i dues en horari d'estiu per passar a l'hora oficial.

el Canós

Metadades estació meteorol´gica
Municipi Els Plans de Sió
Comarca Segarra
Altitud 429 m
Data alta 22.10.1988
Estat actual Operativa
Dades de període
Període
TU
TM
°C
TX
°C
TN
°C
HRM
%
PPT
mm
VVM (2 m)
km/h
DVM (2 m)
graus
VVX (2 m)
km/h
RS
W/m2
00:00 - 00:30 11.0 11.1 10.7 84 0.0 5.4 213 10.1 0
00:30 - 01:00 10.3 10.7 10.1 86 0.0 4.0 231 9.4 0
01:00 - 01:30 9.9 10.1 9.7 88 0.0 1.1 214 4.3 0
01:30 - 02:00 9.8 10.0 9.3 88 0.0 2.5 216 6.5 0
02:00 - 02:30 9.3 9.5 9.0 91 0.0 2.5 227 6.1 0
02:30 - 03:00 9.2 9.3 9.0 93 0.0 3.6 224 5.8 0
03:00 - 03:30 9.1 9.2 9.1 93 0.0 3.2 213 5.8 0
03:30 - 04:00 9.1 9.2 8.9 92 0.0 2.5 207 4.3 0
04:00 - 04:30 8.8 8.9 8.8 93 0.0 2.9 221 5.4 0
04:30 - 05:00 8.8 8.8 8.7 94 0.0 3.2 222 5.8 0
05:00 - 05:30 9.0 9.2 8.7 93 0.0 6.5 255 13.3 0
05:30 - 06:00 9.0 9.1 8.9 94 0.0 7.2 260 13.3 0
06:00 - 06:30 8.9 9.0 8.9 95 0.0 4.3 265 9.4 1
06:30 - 07:00 8.9 8.9 8.9 95 0.0 4.0 268 8.6 11
07:00 - 07:30 9.0 9.0 8.9 95 0.0 5.4 260 9.0 28
07:30 - 08:00 9.0 9.2 9.0 95 0.0 3.2 268 8.3 38
08:00 - 08:30 9.3 9.5 9.1 94 0.0 3.6 260 8.6 81
08:30 - 09:00 9.6 9.7 9.5 93 0.0 4.3 265 8.6 92
09:00 - 09:30 9.7 10.0 9.6 92 0.0 4.3 244 8.3 120
09:30 - 10:00 10.0 10.2 9.8 91 0.0 2.2 257 7.6 104
10:00 - 10:30 10.3 10.5 10.1 89 0.0 3.6 256 9.7 163
10:30 - 11:00 10.6 10.9 10.4 87 0.0 2.5 298 8.3 203
11:00 - 11:30 11.0 11.5 10.8 86 0.0 3.2 334 9.0 244
11:30 - 12:00 11.4 11.8 11.3 84 0.0 2.9 242 8.3 320
12:00 - 12:30 12.6 12.9 11.9 79 0.0 2.9 352 9.7 443
12:30 - 13:00 12.5 12.9 12.3 79 0.0 2.5 357 8.3 378
13:00 - 13:30 13.5 14.2 12.8 75 0.0 3.6 351 9.0 577
13:30 - 14:00 14.4 14.9 13.7 70 0.0 2.2 51 7.2 509
14:00 - 14:30 15.0 15.5 14.6 65 0.0 2.5 265 7.9 482
14:30 - 15:00 15.4 15.8 14.8 62 0.0 2.5 354 7.9 374
15:00 - 15:30 15.0 15.5 14.7 63 0.0 2.5 272 6.5 185
15:30 - 16:00 15.0 15.1 14.8 65 0.0 1.8 295 6.1 141
16:00 - 16:30 15.4 15.7 14.9 64 0.0 1.4 232 7.2 123
16:30 - 17:00 14.9 15.3 14.6 69 0.0 0.0 103 2.2 41
17:00 - 17:30 14.2 14.6 13.9 75 0.0 0.0 109 1.1 3
17:30 - 18:00 13.7 13.9 13.5 78 0.0 0.0 111 1.4 0
18:00 - 18:30 13.3 13.5 13.1 84 0.0 0.0 141 2.5 0
18:30 - 19:00 13.5 13.7 13.3 85 0.0 0.4 125 3.2 0
19:00 - 19:30 13.3 13.6 13.1 86 0.0 0.7 120 4.3 0
19:30 - 20:00 13.3 13.4 12.9 86 0.0 0.7 140 5.4 0
20:00 - 20:30 12.8 12.9 12.7 89 0.0 0.0 101 2.9 0
20:30 - 21:00 12.7 12.9 12.4 90 0.0 0.4 140 3.2 0
21:00 - 21:30 12.3 12.7 11.7 91 0.0 0.4 134 2.9 0
21:30 - 22:00 11.8 12.1 11.7 94 0.0 0.4 116 5.0 0
22:00 - 22:30 12.1 12.2 12.0 92 0.0 0.7 138 4.7 0

Les dades en taronja només han passat un control de qualitat automàtic. Resta pendent la seva validació definitiva.